createdAt,value
2022-08-22T00:02:13.875Z,99749.81
2022-08-22T00:03:00.473Z,99729.84
2022-08-22T00:04:47.489Z,99749.63
2022-08-22T00:07:39.943Z,99748.88
2022-08-22T00:10:25.286Z,99738.44
2022-08-22T00:13:16.069Z,99746.63
2022-08-22T00:16:00.896Z,99743.53
2022-08-22T00:18:49.566Z,99743.44
2022-08-22T00:21:30.286Z,99742.66
2022-08-22T00:24:18.861Z,99747.38
2022-08-22T00:26:49.194Z,99743.75
2022-08-22T00:29:20.378Z,99747.00
2022-08-22T00:31:51.524Z,99742.22
2022-08-22T00:34:22.614Z,99744.81
2022-08-22T00:37:07.426Z,99738.63
2022-08-22T00:39:47.895Z,99745.28
2022-08-22T00:42:31.374Z,99746.56
2022-08-22T00:45:17.179Z,99746.91
2022-08-22T00:47:58.339Z,99746.13
2022-08-22T00:50:49.962Z,99750.16
2022-08-22T00:53:49.750Z,99751.84
2022-08-22T00:56:22.068Z,99745.09
2022-08-22T00:59:25.259Z,99742.22
2022-08-22T01:02:18.003Z,99742.88
2022-08-22T01:05:07.703Z,99745.00
2022-08-22T01:07:41.301Z,99743.94
2022-08-22T01:10:30.898Z,99740.19
2022-08-22T01:13:21.982Z,99738.91
2022-08-22T01:15:50.802Z,99743.53
2022-08-22T01:18:48.235Z,99738.72
2022-08-22T01:21:24.147Z,99740.53
2022-08-22T01:24:20.242Z,99741.16
2022-08-22T01:27:20.970Z,99732.97
2022-08-22T01:30:05.345Z,99738.56
2022-08-22T01:32:43.083Z,99740.81
2022-08-22T01:35:24.927Z,99735.34
2022-08-22T01:38:29.026Z,99738.38
2022-08-22T01:41:18.991Z,99742.84
2022-08-22T01:44:03.540Z,99742.13
2022-08-22T01:46:37.280Z,99734.50
2022-08-22T01:49:12.721Z,99737.47
2022-08-22T01:51:56.890Z,99737.41
2022-08-22T01:54:54.796Z,99740.16
2022-08-22T01:57:22.837Z,99744.13
2022-08-22T01:59:52.787Z,99733.94
2022-08-22T02:02:42.423Z,99735.66
2022-08-22T02:05:21.010Z,99737.72
2022-08-22T02:07:56.487Z,99743.09
2022-08-22T02:10:54.475Z,99736.84
2022-08-22T02:13:35.046Z,99736.66
2022-08-22T02:16:16.289Z,99740.81
2022-08-22T02:19:23.353Z,99732.59
2022-08-22T02:22:20.675Z,99740.09
2022-08-22T02:24:47.527Z,99744.53
2022-08-22T02:27:46.259Z,99734.34
2022-08-22T02:30:25.977Z,99737.88
2022-08-22T02:32:59.392Z,99744.88
2022-08-22T02:35:31.263Z,99738.00
2022-08-22T02:38:16.076Z,99748.09
2022-08-22T02:41:04.155Z,99739.72
2022-08-22T02:43:39.402Z,99736.72
2022-08-22T02:46:41.368Z,99741.03
2022-08-22T02:50:03.934Z,99742.63
2022-08-22T02:52:51.436Z,99733.81
2022-08-22T02:55:31.292Z,99731.78
2022-08-22T02:58:43.002Z,99732.25
2022-08-22T03:01:27.986Z,99729.81
2022-08-22T03:04:45.599Z,99728.25
2022-08-22T03:07:18.278Z,99728.88
2022-08-22T03:09:47.857Z,99731.56
2022-08-22T03:12:30.110Z,99735.09
2022-08-22T03:15:49.714Z,99740.47
2022-08-22T03:18:19.390Z,99732.47
2022-08-22T03:21:21.228Z,99733.44
2022-08-22T03:23:52.338Z,99737.66
2022-08-22T03:26:44.979Z,99734.25
2022-08-22T03:29:27.306Z,99732.91
2022-08-22T03:32:23.925Z,99736.97
2022-08-22T03:35:01.778Z,99738.09
2022-08-22T03:37:31.278Z,99743.16
2022-08-22T03:40:03.921Z,99736.88
2022-08-22T03:42:39.626Z,99737.78
2022-08-22T03:45:22.592Z,99740.19
2022-08-22T03:48:02.354Z,99741.50
2022-08-22T03:50:54.719Z,99740.25
2022-08-22T03:53:44.142Z,99743.47
2022-08-22T03:56:34.242Z,99743.34
2022-08-22T03:59:22.665Z,99746.41
2022-08-22T04:02:33.402Z,99752.81
2022-08-22T04:05:20.706Z,99754.22
2022-08-22T04:08:13.051Z,99751.00
2022-08-22T04:10:59.465Z,99755.94
2022-08-22T04:13:54.464Z,99755.88
2022-08-22T04:16:47.002Z,99763.00
2022-08-22T04:19:21.739Z,99765.69
2022-08-22T04:22:08.394Z,99762.94
2022-08-22T04:24:52.259Z,99756.91
2022-08-22T04:27:40.433Z,99764.75
2022-08-22T04:30:30.237Z,99757.69
2022-08-22T04:33:12.083Z,99759.69
2022-08-22T04:36:02.759Z,99755.78
2022-08-22T04:38:48.882Z,99768.34
2022-08-22T04:41:20.402Z,99769.38
2022-08-22T04:44:04.545Z,99767.06
2022-08-22T04:46:54.670Z,99774.63
2022-08-22T04:49:40.715Z,99772.88
2022-08-22T04:52:34.993Z,99774.47
2022-08-22T04:56:17.209Z,99779.81
2022-08-22T04:58:51.581Z,99774.94
2022-08-22T05:01:22.666Z,99780.59
2022-08-22T05:04:02.230Z,99780.44
2022-08-22T05:06:31.951Z,99781.91
2022-08-22T05:09:05.637Z,99785.97
2022-08-22T05:11:33.879Z,99784.06
2022-08-22T05:18:36.935Z,99782.03
2022-08-22T05:21:07.466Z,99788.28
2022-08-22T05:23:44.391Z,99794.72
2022-08-22T05:26:12.476Z,99788.78
2022-08-22T05:28:51.322Z,99784.06
2022-08-22T05:31:30.970Z,99796.47
2022-08-22T05:34:13.737Z,99788.28
2022-08-22T05:36:46.265Z,99785.69
2022-08-22T05:39:19.708Z,99792.66
2022-08-22T05:41:46.892Z,99795.28
2022-08-22T05:44:33.516Z,99789.97
2022-08-22T05:47:02.929Z,99796.97
2022-08-22T05:49:38.793Z,99799.13
2022-08-22T05:52:08.259Z,99788.34
2022-08-22T05:54:50.139Z,99791.38
2022-08-22T05:57:30.462Z,99791.59
2022-08-22T06:00:12.033Z,99781.56
2022-08-22T06:02:48.259Z,99779.38
2022-08-22T06:05:22.126Z,99784.16
2022-08-22T06:07:50.428Z,99784.66
2022-08-22T06:10:24.713Z,99780.41
2022-08-22T06:13:12.962Z,99782.13
2022-08-22T06:20:08.319Z,99782.75
2022-08-22T06:22:46.791Z,99787.69
2022-08-22T06:25:18.710Z,99781.41
2022-08-22T06:27:47.877Z,99783.44
2022-08-22T06:30:16.346Z,99783.94
2022-08-22T06:33:00.140Z,99777.66
2022-08-22T06:35:50.683Z,99779.38
2022-08-22T06:38:19.779Z,99776.78
2022-08-22T06:40:47.003Z,99773.47
2022-08-22T06:43:13.806Z,99774.97
2022-08-22T06:45:41.089Z,99785.75
2022-08-22T06:53:05.369Z,99791.97
2022-08-22T06:55:32.874Z,99793.56
2022-08-22T06:58:03.988Z,99796.25
2022-08-22T07:00:35.325Z,99793.16
2022-08-22T07:03:20.255Z,99797.94
2022-08-22T07:05:48.080Z,99799.06
2022-08-22T07:08:19.803Z,99792.41
2022-08-22T07:10:59.123Z,99798.25
2022-08-22T07:13:28.276Z,99792.72
2022-08-22T07:15:57.853Z,99791.25
2022-08-22T07:18:26.886Z,99797.38
2022-08-22T07:20:59.290Z,99794.25
2022-08-22T07:23:40.409Z,99804.59
2022-08-22T07:26:34.009Z,99799.41
2022-08-22T07:29:05.056Z,99794.72
2022-08-22T07:31:42.912Z,99798.66
2022-08-22T07:34:23.049Z,99793.69
2022-08-22T07:37:00.959Z,99802.66
2022-08-22T07:39:39.674Z,99792.88
2022-08-22T07:42:28.528Z,99801.38
2022-08-22T07:45:07.768Z,99798.06
2022-08-22T07:47:49.549Z,99795.59
2022-08-22T07:50:24.939Z,99799.53
2022-08-22T07:52:52.671Z,99792.91
2022-08-22T07:55:22.787Z,99792.50
2022-08-22T07:57:55.855Z,99793.75
2022-08-22T08:00:25.143Z,99800.22
2022-08-22T08:02:58.372Z,99801.91
2022-08-22T08:05:28.362Z,99809.34
2022-08-22T08:07:56.159Z,99804.78
2022-08-22T08:10:27.635Z,99802.91
2022-08-22T08:13:02.327Z,99809.59
2022-08-22T08:15:31.901Z,99802.97
2022-08-22T08:20:30.249Z,99814.22
2022-08-22T08:22:57.773Z,99800.06
2022-08-22T08:25:27.786Z,99800.25
2022-08-22T08:28:13.214Z,99800.25
2022-08-22T08:30:56.266Z,99794.84
2022-08-22T08:33:26.944Z,99792.75
2022-08-22T08:36:16.470Z,99796.94
2022-08-22T08:39:17.191Z,99803.19
2022-08-22T08:42:59.318Z,99803.38
2022-08-22T08:54:43.512Z,99791.72
2022-08-22T08:57:41.548Z,99784.84
2022-08-22T09:00:50.556Z,99781.28
2022-08-22T09:03:51.272Z,99779.19
2022-08-22T09:06:39.250Z,99778.56
2022-08-22T09:09:46.729Z,99779.81
2022-08-22T09:12:25.375Z,99776.44
2022-08-22T09:15:19.649Z,99772.72
2022-08-22T09:18:18.407Z,99780.81
2022-08-22T09:21:31.275Z,99774.97
2022-08-22T09:24:16.834Z,99781.22
2022-08-22T09:26:57.322Z,99775.78
2022-08-22T09:29:55.147Z,99784.28
2022-08-22T09:32:43.930Z,99780.56
2022-08-22T09:35:19.247Z,99781.13
2022-08-22T09:38:08.998Z,99780.75
2022-08-22T09:40:54.877Z,99774.06
2022-08-22T09:43:37.684Z,99783.81
2022-08-22T09:46:32.264Z,99773.75
2022-08-22T09:49:13.916Z,99783.56
2022-08-22T09:52:14.428Z,99781.47
2022-08-22T09:55:35.284Z,99764.41
2022-08-22T09:58:25.882Z,99765.63
2022-08-22T10:01:24.319Z,99770.59
2022-08-22T10:04:07.090Z,99765.59
2022-08-22T10:07:03.997Z,99761.63
2022-08-22T10:09:57.351Z,99763.00
2022-08-22T10:12:51.170Z,99757.59
2022-08-22T10:15:35.819Z,99752.16
2022-08-22T10:18:14.839Z,99758.38
2022-08-22T10:21:20.363Z,99749.44
2022-08-22T10:24:25.166Z,99743.72
2022-08-22T10:27:02.279Z,99736.97
2022-08-22T10:29:48.314Z,99735.28
2022-08-22T10:32:14.896Z,99728.97
2022-08-22T10:34:44.730Z,99723.09
2022-08-22T10:37:39.525Z,99718.66
2022-08-22T10:40:16.835Z,99714.50
2022-08-22T10:43:28.894Z,99718.06
2022-08-22T10:46:12.370Z,99722.31
2022-08-22T10:48:46.327Z,99715.88
2022-08-22T10:51:28.644Z,99716.31
2022-08-22T10:54:32.640Z,99708.41
2022-08-22T10:57:22.545Z,99706.75
2022-08-22T10:59:52.434Z,99697.09
2022-08-22T11:02:47.501Z,99703.44
2022-08-22T11:05:30.350Z,99704.63
2022-08-22T11:08:04.183Z,99706.19
2022-08-22T11:11:07.661Z,99702.16
2022-08-22T11:14:49.678Z,99696.00
2022-08-22T11:17:40.750Z,99694.59
2022-08-22T11:20:19.636Z,99690.78
2022-08-22T11:23:11.800Z,99688.63
2022-08-22T11:25:54.068Z,99686.53
2022-08-22T11:28:25.575Z,99678.06
2022-08-22T11:31:22.993Z,99686.81
2022-08-22T11:34:08.566Z,99677.25
2022-08-22T11:37:00.544Z,99678.97
2022-08-22T11:39:56.379Z,99677.75
2022-08-22T11:43:12.076Z,99674.84
2022-08-22T11:45:51.012Z,99666.75
2022-08-22T11:48:17.652Z,99657.50
2022-08-22T11:50:55.538Z,99669.59
2022-08-22T11:53:33.557Z,99660.56
2022-08-22T11:56:24.780Z,99666.81
2022-08-22T11:59:01.113Z,99667.78
2022-08-22T12:01:34.201Z,99663.56
2022-08-22T12:04:12.839Z,99658.75
2022-08-22T12:07:01.021Z,99659.31
2022-08-22T12:09:33.703Z,99652.16
2022-08-22T12:12:20.167Z,99650.88
2022-08-22T12:15:15.851Z,99654.41
2022-08-22T12:18:07.141Z,99656.44
2022-08-22T12:20:55.995Z,99641.66
2022-08-22T12:23:55.570Z,99643.56
2022-08-22T12:26:34.280Z,99647.16
2022-08-22T12:29:45.061Z,99650.56
2022-08-22T12:32:33.947Z,99649.06
2022-08-22T12:35:39.942Z,99642.22
2022-08-22T12:38:40.602Z,99631.94
2022-08-22T12:41:11.635Z,99634.91
2022-08-22T12:43:47.128Z,99626.31
2022-08-22T12:46:37.806Z,99631.75
2022-08-22T12:49:14.011Z,99616.66
2022-08-22T12:52:12.110Z,99619.72
2022-08-22T12:55:05.866Z,99621.97
2022-08-22T12:57:40.367Z,99630.22
2022-08-22T13:00:26.908Z,99615.47
2022-08-22T13:02:59.272Z,99618.78
2022-08-22T13:05:28.067Z,99617.97
2022-08-22T13:08:08.015Z,99613.50
2022-08-22T13:10:48.603Z,99614.78
2022-08-22T13:13:31.358Z,99607.94
2022-08-22T13:16:05.736Z,99613.38
2022-08-22T13:18:37.820Z,99608.38
2022-08-22T13:21:07.922Z,99604.63
2022-08-22T13:23:46.468Z,99608.25
2022-08-22T13:26:26.958Z,99600.09
2022-08-22T13:29:25.052Z,99600.97
2022-08-22T13:33:08.640Z,99602.84
2022-08-22T13:35:45.614Z,99601.41
2022-08-22T13:38:25.827Z,99599.06
2022-08-22T13:40:54.754Z,99605.66
2022-08-22T13:43:24.616Z,99599.66
2022-08-22T13:45:57.739Z,99598.25
2022-08-22T13:48:47.003Z,99600.59
2022-08-22T13:51:21.189Z,99592.34
2022-08-22T13:54:02.177Z,99594.94
2022-08-22T13:56:39.259Z,99591.16
2022-08-22T13:59:47.106Z,99587.94
2022-08-22T14:02:18.471Z,99588.31
2022-08-22T14:04:51.568Z,99589.75
2022-08-22T14:07:30.103Z,99583.34
2022-08-22T14:10:14.853Z,99584.56
2022-08-22T14:13:11.545Z,99585.97
2022-08-22T14:15:46.057Z,99576.97
2022-08-22T14:18:30.417Z,99574.84
2022-08-22T14:21:19.881Z,99565.06
2022-08-22T14:23:53.915Z,99568.25
2022-08-22T14:26:32.792Z,99564.47
2022-08-22T14:29:07.570Z,99567.88
2022-08-22T14:31:35.285Z,99555.72
2022-08-22T14:34:10.158Z,99567.16
2022-08-22T14:36:55.293Z,99564.56
2022-08-22T14:39:26.599Z,99560.91
2022-08-22T14:42:10.852Z,99553.09
2022-08-22T14:44:44.978Z,99561.13
2022-08-22T14:47:54.016Z,99557.00
2022-08-22T14:50:30.366Z,99556.78
2022-08-22T14:53:24.989Z,99552.16
2022-08-22T14:56:21.582Z,99551.84
2022-08-22T14:58:58.441Z,99553.00
2022-08-22T15:01:32.625Z,99557.72
2022-08-22T15:04:08.545Z,99555.91
2022-08-22T15:06:38.924Z,99549.66
2022-08-22T15:09:31.438Z,99549.38
2022-08-22T15:11:59.106Z,99541.44
2022-08-22T15:14:37.146Z,99540.63
2022-08-22T15:17:08.903Z,99550.28
2022-08-22T15:19:42.523Z,99542.94
2022-08-22T15:22:25.683Z,99538.81
2022-08-22T15:25:02.765Z,99539.41
2022-08-22T15:27:31.807Z,99534.31
2022-08-22T15:30:01.118Z,99538.09
2022-08-22T15:32:32.501Z,99538.91
2022-08-22T15:35:26.629Z,99535.28
2022-08-22T15:38:30.537Z,99531.88
2022-08-22T15:41:36.921Z,99530.81
2022-08-22T15:44:32.196Z,99535.19
2022-08-22T15:47:31.544Z,99530.94
2022-08-22T15:50:09.351Z,99523.59
2022-08-22T15:53:06.827Z,99526.72
2022-08-22T15:55:35.406Z,99529.53
2022-08-22T15:58:08.770Z,99525.41
2022-08-22T16:00:45.506Z,99525.66
2022-08-22T16:03:24.566Z,99533.72
2022-08-22T16:05:55.777Z,99522.34
2022-08-22T16:08:33.007Z,99528.03
2022-08-22T16:11:02.690Z,99524.81
2022-08-22T16:13:33.560Z,99518.56
2022-08-22T16:16:23.684Z,99518.22
2022-08-22T16:18:51.278Z,99521.19
2022-08-22T16:21:23.921Z,99516.44
2022-08-22T16:23:56.690Z,99520.75
2022-08-22T16:26:29.306Z,99525.34
2022-08-22T16:28:59.244Z,99519.56
2022-08-22T16:31:44.333Z,99515.31
2022-08-22T16:34:18.128Z,99519.56
2022-08-22T16:37:03.257Z,99522.16
2022-08-22T16:40:24.386Z,99516.97
2022-08-22T16:43:18.502Z,99516.97
2022-08-22T16:45:45.583Z,99519.06
2022-08-22T16:48:27.369Z,99514.94
2022-08-22T16:51:15.934Z,99525.13
2022-08-22T16:54:02.619Z,99511.53
2022-08-22T16:57:08.991Z,99523.00
2022-08-22T16:59:43.362Z,99521.78
2022-08-22T17:02:15.920Z,99523.19
2022-08-22T17:05:19.942Z,99523.34
2022-08-22T17:08:02.524Z,99523.94
2022-08-22T17:10:43.575Z,99536.44
2022-08-22T17:13:39.135Z,99529.94
2022-08-22T17:16:17.297Z,99529.00
2022-08-22T17:18:54.305Z,99528.41
2022-08-22T17:21:40.349Z,99533.16
2022-08-22T17:24:35.516Z,99527.38
2022-08-22T17:27:31.108Z,99534.34
2022-08-22T17:30:09.857Z,99532.31
2022-08-22T17:33:10.683Z,99542.72
2022-08-22T17:36:04.581Z,99535.06
2022-08-22T17:39:15.902Z,99538.03
2022-08-22T17:42:19.081Z,99542.25
2022-08-22T17:44:56.898Z,99550.53
2022-08-22T17:47:37.577Z,99542.06
2022-08-22T17:50:14.222Z,99541.66
2022-08-22T17:52:56.721Z,99543.22
2022-08-22T17:55:31.662Z,99553.22
2022-08-22T17:58:13.470Z,99560.31
2022-08-22T18:01:13.989Z,99561.75
2022-08-22T18:03:51.626Z,99561.63
2022-08-22T18:06:22.850Z,99569.78
2022-08-22T18:09:13.664Z,99565.03
2022-08-22T18:12:07.278Z,99563.66
2022-08-22T18:14:44.206Z,99578.38
2022-08-22T18:17:21.082Z,99576.97
2022-08-22T18:20:06.426Z,99577.91
2022-08-22T18:22:39.862Z,99580.16
2022-08-22T18:25:18.731Z,99575.44
2022-08-22T18:27:55.973Z,99577.69
2022-08-22T18:31:39.083Z,99577.66
2022-08-22T18:34:33.686Z,99583.78
2022-08-22T18:37:12.399Z,99585.22
2022-08-22T18:43:31.814Z,99585.69
2022-08-22T18:46:03.798Z,99595.13
2022-08-22T18:48:59.270Z,99599.06
2022-08-22T18:51:38.856Z,99598.47
2022-08-22T18:54:05.518Z,99599.88
2022-08-22T18:56:50.226Z,99600.81
2022-08-22T18:59:49.078Z,99613.63
2022-08-22T19:02:37.438Z,99620.56
2022-08-22T19:05:18.993Z,99614.44
2022-08-22T19:08:11.783Z,99618.53
2022-08-22T19:10:53.944Z,99622.66
2022-08-22T19:13:33.976Z,99624.69
2022-08-22T19:16:25.511Z,99625.53
2022-08-22T19:18:55.730Z,99631.34
2022-08-22T19:21:51.582Z,99632.22
2022-08-22T19:24:27.394Z,99635.13
2022-08-22T19:27:18.759Z,99639.81
2022-08-22T19:29:47.342Z,99639.28
2022-08-22T19:32:49.490Z,99645.31
2022-08-22T19:35:50.118Z,99651.56
2022-08-22T19:38:53.598Z,99654.63
2022-08-22T19:41:59.518Z,99651.47
2022-08-22T19:44:37.678Z,99660.50
2022-08-22T19:47:26.803Z,99649.41
2022-08-22T19:50:17.925Z,99652.44
2022-08-22T19:53:08.470Z,99653.16
2022-08-22T19:55:37.834Z,99661.69
2022-08-22T19:58:04.454Z,99661.13
2022-08-22T20:01:06.450Z,99655.66
2022-08-22T20:04:05.229Z,99647.63
2022-08-22T20:06:45.991Z,99657.50
2022-08-22T20:09:18.370Z,99653.34
2022-08-22T20:12:15.137Z,99650.59
2022-08-22T20:14:44.755Z,99649.47
2022-08-22T20:17:39.557Z,99648.09
2022-08-22T20:20:35.346Z,99661.28
2022-08-22T20:23:08.375Z,99662.13
2022-08-22T20:25:44.160Z,99658.94
2022-08-22T20:28:31.344Z,99654.63
2022-08-22T20:31:00.590Z,99661.81
2022-08-22T20:33:31.734Z,99657.88
2022-08-22T20:36:01.325Z,99651.19
2022-08-22T20:38:56.382Z,99661.91
2022-08-22T20:41:39.080Z,99658.50
2022-08-22T20:44:12.322Z,99660.19
2022-08-22T20:46:55.174Z,99663.44
2022-08-22T20:49:28.685Z,99669.69
2022-08-22T20:51:55.312Z,99666.34
2022-08-22T20:54:24.341Z,99666.78
2022-08-22T20:56:53.663Z,99674.09
2022-08-22T20:59:37.561Z,99671.00
2022-08-22T21:02:13.019Z,99671.53
2022-08-22T21:04:49.351Z,99673.84
2022-08-22T21:07:34.568Z,99678.97
2022-08-22T21:10:37.614Z,99672.00
2022-08-22T21:13:08.515Z,99687.28
2022-08-22T21:15:41.697Z,99686.66
2022-08-22T21:18:11.506Z,99687.78
2022-08-22T21:20:38.835Z,99692.25
2022-08-22T21:23:10.550Z,99694.22
2022-08-22T21:26:21.348Z,99698.78
2022-08-22T21:28:50.774Z,99692.63
2022-08-22T21:31:21.163Z,99695.47
2022-08-22T21:33:50.097Z,99693.53
2022-08-22T21:36:20.407Z,99698.19
2022-08-22T21:39:04.050Z,99698.69
2022-08-22T21:41:30.751Z,99704.25
2022-08-22T21:44:17.466Z,99700.38
2022-08-22T21:46:44.278Z,99707.97
2022-08-22T21:49:23.598Z,99724.47
2022-08-22T21:51:51.026Z,99725.66
2022-08-22T21:54:32.610Z,99722.88
2022-08-22T21:57:11.110Z,99724.13
2022-08-22T21:59:51.905Z,99730.09
2022-08-22T22:02:40.920Z,99727.88
2022-08-22T22:05:18.011Z,99728.28
2022-08-22T22:07:46.390Z,99717.84
2022-08-22T22:10:16.836Z,99724.16
2022-08-22T22:12:45.560Z,99726.03
2022-08-22T22:15:15.511Z,99731.69
2022-08-22T22:17:42.151Z,99730.44
2022-08-22T22:20:09.950Z,99726.28
2022-08-22T22:22:36.991Z,99731.22
2022-08-22T22:25:40.609Z,99733.78
2022-08-22T22:28:00.122Z,99736.47
2022-08-22T22:30:26.898Z,99739.81
2022-08-22T22:32:53.642Z,99747.75
2022-08-22T22:35:21.635Z,99748.19
2022-08-22T22:37:48.414Z,99748.19
2022-08-22T22:40:15.252Z,99746.31
2022-08-22T22:42:42.703Z,99739.22
2022-08-22T22:45:10.667Z,99747.56
2022-08-22T22:47:37.940Z,99748.81
2022-08-22T22:50:05.910Z,99756.31
2022-08-22T22:52:32.625Z,99764.88
2022-08-22T22:54:59.282Z,99762.41
2022-08-22T22:57:26.362Z,99764.03
2022-08-22T22:59:55.433Z,99764.44
2022-08-22T23:02:23.017Z,99761.53
2022-08-22T23:04:53.715Z,99766.78
2022-08-22T23:07:21.553Z,99768.03
2022-08-22T23:09:48.234Z,99765.53
2022-08-22T23:12:14.984Z,99765.72
2022-08-22T23:14:41.628Z,99773.84
2022-08-22T23:17:08.347Z,99776.53
2022-08-22T23:19:36.062Z,99773.63
2022-08-22T23:22:03.007Z,99777.00
2022-08-22T23:24:31.072Z,99783.84
2022-08-22T23:26:57.933Z,99787.78
2022-08-22T23:29:26.376Z,99790.47
2022-08-22T23:31:54.695Z,99790.28
2022-08-22T23:34:27.092Z,99784.91
2022-08-22T23:36:55.502Z,99783.22
2022-08-22T23:39:23.298Z,99783.66
2022-08-22T23:41:50.825Z,99792.81
2022-08-22T23:44:19.998Z,99792.16
2022-08-22T23:46:46.781Z,99791.13
2022-08-22T23:49:14.371Z,99787.16
2022-08-22T23:51:41.463Z,99781.38
2022-08-22T23:54:08.233Z,99784.69
2022-08-22T23:56:43.057Z,99786.34
2022-08-22T23:59:13.348Z,99789.66
